createdAt,value
2022-08-25T00:00:56.326Z,0.097440004
2022-08-25T00:02:05.050Z,0.024360001
2022-08-25T00:03:04.929Z,0.097440004
2022-08-25T00:04:00.609Z,0.040600002
2022-08-25T00:05:00.706Z,0.121800005
2022-08-25T00:07:00.677Z,0.146160007
2022-08-25T00:07:03.346Z,0.146160007
2022-08-25T00:07:56.475Z,0.178640008
2022-08-25T00:08:51.781Z,0.121800005
2022-08-25T00:09:52.411Z,0.146160007
2022-08-25T00:11:03.215Z,0.048720002
2022-08-25T00:11:03.502Z,0.048720002
2022-08-25T00:11:56.109Z,0.064960003
2022-08-25T00:12:56.096Z,0.162400007
2022-08-25T00:13:51.814Z,0.064960003
2022-08-25T00:14:55.389Z,0.113680005
2022-08-25T00:16:56.103Z,0.032480001
2022-08-25T00:17:50.899Z,0.21924001
2022-08-25T00:18:54.309Z,0.146160007
2022-08-25T00:19:47.324Z,0.097440004
2022-08-25T00:21:42.777Z,0.097440004
2022-08-25T00:22:50.557Z,0.097440004
2022-08-25T00:23:43.586Z,0.048720002
2022-08-25T00:24:45.189Z,0.089320004
2022-08-25T00:25:40.779Z,0.154280007
2022-08-25T00:26:42.948Z,0.081200004
2022-08-25T00:27:38.225Z,0.081200004
2022-08-25T00:28:40.805Z,0.089320004
2022-08-25T00:29:35.339Z,0.056840003
2022-08-25T00:30:40.637Z,0.081200004
2022-08-25T00:34:08.975Z,0.073080003
2022-08-25T00:35:08.541Z,0.040600002
2022-08-25T00:36:07.801Z,0.064960003
2022-08-25T00:37:03.248Z,0.146160007
2022-08-25T00:38:06.103Z,0.121800005
2022-08-25T00:39:07.974Z,0.056840003
2022-08-25T00:40:08.234Z,0.113680005
2022-08-25T00:42:11.732Z,0.097440004
2022-08-25T00:42:15.759Z,0.097440004
2022-08-25T00:43:08.475Z,0.089320004
2022-08-25T00:44:08.620Z,0.00812
2022-08-25T00:45:09.165Z,0.170520008
2022-08-25T00:47:08.680Z,0.016240001
2022-08-25T00:48:05.076Z,0.089320004
2022-08-25T00:49:22.462Z,0.056840003
2022-08-25T00:49:24.727Z,0.056840003
2022-08-25T00:50:08.148Z,0.073080003
2022-08-25T00:51:07.247Z,0.121800005
2022-08-25T00:52:06.682Z,0.121800005
2022-08-25T00:53:03.044Z,0.105560005
2022-08-25T00:54:06.304Z,0.113680005
2022-08-25T00:55:05.765Z,0.089320004
2022-08-25T00:55:07.670Z,0.089320004
2022-08-25T00:56:55.400Z,0.146160007
2022-08-25T00:57:59.188Z,0.097440004
2022-08-25T00:58:55.412Z,0.024360001
2022-08-25T00:59:54.411Z,0.178640008
2022-08-25T01:01:54.286Z,0.048720002
2022-08-25T01:02:53.509Z,0.056840003
2022-08-25T01:03:53.182Z,0.089320004
2022-08-25T01:04:49.517Z,0.129920006
2022-08-25T01:05:50.093Z,0.064960003
2022-08-25T01:06:44.406Z,0.154280007
2022-08-25T01:07:46.562Z,0.064960003
2022-08-25T01:08:41.060Z,0.129920006
2022-08-25T01:09:40.529Z,0.129920006
2022-08-25T01:10:41.087Z,0.048720002
2022-08-25T01:12:42.257Z,0.129920006
2022-08-25T01:13:37.218Z,0.129920006
2022-08-25T01:15:16.757Z,0.113680005
2022-08-25T01:17:12.047Z,0.032480001
2022-08-25T01:18:07.494Z,0.040600002
2022-08-25T01:19:10.205Z,0.105560005
2022-08-25T01:19:15.652Z,0.105560005
2022-08-25T01:21:52.134Z,0.113680005
2022-08-25T01:22:55.307Z,0.048720002
2022-08-25T01:23:48.623Z,0.105560005
2022-08-25T01:24:49.166Z,0.105560005
2022-08-25T01:26:44.967Z,0.064960003
2022-08-25T01:27:39.435Z,0.129920006
2022-08-25T01:28:38.004Z,0.048720002
2022-08-25T01:32:02.340Z,0.073080003
2022-08-25T01:33:03.460Z,0.081200004
2022-08-25T01:33:57.793Z,0.064960003
2022-08-25T01:35:00.471Z,0.064960003
2022-08-25T01:36:58.107Z,0.048720002
2022-08-25T01:37:58.065Z,0.048720002
2022-08-25T01:38:58.270Z,0.064960003
2022-08-25T01:39:57.477Z,0.113680005
2022-08-25T01:41:54.683Z,0.064960003
2022-08-25T01:42:53.692Z,0.113680005
2022-08-25T01:43:51.888Z,0.081200004
2022-08-25T01:44:55.894Z,0.048720002
2022-08-25T01:46:53.580Z,0.024360001
2022-08-25T01:47:49.115Z,0.064960003
2022-08-25T01:48:49.232Z,0.154280007
2022-08-25T01:49:46.203Z,0.113680005
2022-08-25T01:50:42.282Z,0.056840003
2022-08-25T01:51:41.741Z,0.146160007
2022-08-25T01:52:37.698Z,0.073080003
2022-08-25T01:53:37.758Z,0.105560005
2022-08-25T01:54:32.677Z,0.178640008
2022-08-25T01:55:33.968Z,0.056840003
2022-08-25T01:57:30.100Z,0.154280007
2022-08-25T01:58:25.589Z,0.064960003
2022-08-25T01:59:29.058Z,0.097440004
2022-08-25T02:00:23.647Z,0.056840003
2022-08-25T02:02:21.653Z,0.048720002
2022-08-25T02:03:18.543Z,0.032480001
2022-08-25T02:04:17.419Z,0.105560005
2022-08-25T02:05:12.464Z,0.081200004
2022-08-25T02:06:08.782Z,0.048720002
2022-08-25T02:07:10.821Z,0.081200004
2022-08-25T02:08:06.551Z,0.105560005
2022-08-25T02:09:05.571Z,0.138040006
2022-08-25T02:10:02.238Z,0.032480001
2022-08-25T02:11:59.606Z,0.105560005
2022-08-25T02:12:56.335Z,0.105560005
2022-08-25T02:13:58.434Z,0.105560005
2022-08-25T02:16:25.547Z,0.081200004
2022-08-25T02:17:24.734Z,0.081200004
2022-08-25T02:18:21.641Z,0.073080003
2022-08-25T02:19:22.468Z,0.097440004
2022-08-25T02:20:26.332Z,0.089320004
2022-08-25T02:22:32.852Z,0.113680005
2022-08-25T02:23:30.953Z,0.089320004
2022-08-25T02:24:38.897Z,0.097440004
2022-08-25T02:25:35.330Z,0.073080003
2022-08-25T02:27:35.040Z,0.056840003
2022-08-25T02:28:35.186Z,0.081200004
2022-08-25T02:29:36.107Z,0.040600002
2022-08-25T02:30:31.729Z,0.024360001
2022-08-25T02:32:26.137Z,0.040600002
2022-08-25T02:33:29.730Z,0.138040006
2022-08-25T02:34:23.923Z,0.032480001
2022-08-25T02:36:23.191Z,0.056840003
2022-08-25T02:38:22.526Z,0.105560005
2022-08-25T02:39:22.491Z,0.146160007
2022-08-25T02:40:19.327Z,0.073080003
2022-08-25T02:42:13.536Z,0.089320004
2022-08-25T02:43:11.190Z,0.129920006
2022-08-25T02:44:15.410Z,0.129920006
2022-08-25T02:45:20.568Z,0.064960003
2022-08-25T02:48:57.711Z,0.089320004
2022-08-25T02:50:00.228Z,0.056840003
2022-08-25T02:51:59.843Z,0.048720002
2022-08-25T02:52:59.217Z,0.113680005
2022-08-25T02:53:57.082Z,0.089320004
2022-08-25T02:55:00.674Z,0.081200004
2022-08-25T02:55:55.408Z,0.138040006
2022-08-25T02:56:54.682Z,0.056840003
2022-08-25T02:57:49.094Z,0.056840003
2022-08-25T02:58:54.048Z,0.129920006
2022-08-25T02:59:50.832Z,0.073080003
2022-08-25T03:00:50.404Z,0.097440004
2022-08-25T03:01:47.055Z,0.146160007
2022-08-25T03:02:46.771Z,0.097440004
2022-08-25T03:03:41.173Z,0.064960003
2022-08-25T03:04:40.968Z,0.113680005
2022-08-25T03:05:35.765Z,0.129920006
2022-08-25T03:07:35.632Z,0.105560005
2022-08-25T03:08:33.988Z,0.113680005
2022-08-25T03:09:36.617Z,0.129920006
2022-08-25T03:10:31.358Z,0.129920006
2022-08-25T03:12:24.188Z,0.105560005
2022-08-25T03:13:24.074Z,0.073080003
2022-08-25T03:14:19.494Z,0.138040006
2022-08-25T03:15:23.485Z,0.073080003
2022-08-25T03:16:20.341Z,0.105560005
2022-08-25T03:17:24.432Z,0.073080003
2022-08-25T03:18:23.554Z,0.056840003
2022-08-25T03:19:19.946Z,0.129920006
2022-08-25T03:20:21.419Z,0.097440004
2022-08-25T03:22:15.601Z,0.056840003
2022-08-25T03:24:48.828Z,0.048720002
2022-08-25T03:25:52.051Z,0.097440004
2022-08-25T03:27:51.732Z,0.105560005
2022-08-25T03:28:50.785Z,0.097440004
2022-08-25T03:29:48.888Z,0.064960003
2022-08-25T03:30:48.175Z,0.056840003
2022-08-25T03:30:55.755Z,0.056840003
2022-08-25T03:31:50.299Z,0.089320004
2022-08-25T03:32:47.680Z,0.113680005
2022-08-25T03:33:47.083Z,0.129920006
2022-08-25T03:34:42.633Z,0.113680005
2022-08-25T03:35:53.404Z,0.113680005
2022-08-25T03:37:56.289Z,0.056840003
2022-08-25T03:38:52.868Z,0.089320004
2022-08-25T03:39:51.509Z,0.073080003
2022-08-25T03:40:52.076Z,0.121800005
2022-08-25T03:42:58.401Z,0.089320004
2022-08-25T03:43:57.583Z,0.056840003
2022-08-25T03:45:01.511Z,0.121800005
2022-08-25T03:45:54.144Z,0.097440004
2022-08-25T03:47:47.212Z,0.105560005
2022-08-25T03:48:51.130Z,0.170520008
2022-08-25T03:49:45.628Z,0.121800005
2022-08-25T03:50:50.506Z,0.097440004
2022-08-25T03:52:42.817Z,0.097440004
2022-08-25T03:53:37.556Z,-0.016240001
2022-08-25T03:54:43.309Z,0.081200004
2022-08-25T03:55:38.142Z,0.113680005
2022-08-25T03:56:39.936Z,0.040600002
2022-08-25T03:57:34.543Z,0.105560005
2022-08-25T03:58:33.067Z,0.073080003
2022-08-25T03:59:27.828Z,0.056840003
2022-08-25T04:00:32.604Z,0.121800005
2022-08-25T04:02:30.813Z,0.105560005
2022-08-25T04:04:58.785Z,0.162400007
2022-08-25T04:05:58.623Z,0.097440004
2022-08-25T04:08:00.626Z,0.048720002
2022-08-25T04:09:01.248Z,0.203000009
2022-08-25T04:10:03.429Z,0.048720002
2022-08-25T04:11:13.370Z,0.064960003
2022-08-25T04:12:09.790Z,0.089320004
2022-08-25T04:13:16.172Z,0.154280007
2022-08-25T04:14:15.916Z,0.064960003
2022-08-25T04:15:15.138Z,0.089320004
2022-08-25T04:17:13.266Z,0.081200004
2022-08-25T04:18:09.847Z,0.056840003
2022-08-25T04:19:13.798Z,0.081200004
2022-08-25T04:20:14.136Z,0.113680005
2022-08-25T04:22:14.213Z,0.097440004
2022-08-25T04:23:11.245Z,0.113680005
2022-08-25T04:24:13.228Z,0.113680005
2022-08-25T04:25:15.486Z,0.064960003
2022-08-25T04:26:14.940Z,0.154280007
2022-08-25T04:27:15.144Z,0.032480001
2022-08-25T04:28:17.068Z,0.121800005
2022-08-25T04:29:14.489Z,0.121800005
2022-08-25T04:30:18.806Z,0.089320004
2022-08-25T04:32:16.247Z,0.056840003
2022-08-25T04:33:17.182Z,0.129920006
2022-08-25T04:34:29.503Z,0.146160007
2022-08-25T04:34:30.381Z,0.146160007
2022-08-25T04:34:30.567Z,0.146160007
2022-08-25T04:37:03.218Z,0.138040006
2022-08-25T04:38:06.110Z,0.113680005
2022-08-25T04:39:08.674Z,0.146160007
2022-08-25T04:40:07.645Z,0.154280007
2022-08-25T04:41:09.719Z,0.089320004
2022-08-25T04:42:11.807Z,0.186760008
2022-08-25T04:43:09.468Z,0.129920006
2022-08-25T04:44:13.026Z,0.024360001
2022-08-25T04:45:16.069Z,0.048720002
2022-08-25T04:46:20.473Z,0.113680005
2022-08-25T04:47:23.700Z,0.105560005
2022-08-25T04:48:20.195Z,0.121800005
2022-08-25T04:49:20.585Z,0.097440004
2022-08-25T04:50:27.565Z,0.113680005
2022-08-25T04:51:21.092Z,0.121800005
2022-08-25T04:52:22.518Z,0.040600002
2022-08-25T04:53:20.604Z,0.138040006
2022-08-25T04:54:24.246Z,0.089320004
2022-08-25T04:55:20.044Z,0.064960003
2022-08-25T04:57:27.927Z,0.194880009
2022-08-25T04:58:26.808Z,0.073080003
2022-08-25T04:59:30.710Z,0.146160007
2022-08-25T05:00:26.854Z,0.048720002
2022-08-25T05:01:30.934Z,0.105560005
2022-08-25T05:02:25.566Z,0.121800005
2022-08-25T05:03:26.558Z,0.073080003
2022-08-25T05:04:28.262Z,0.105560005
2022-08-25T05:05:32.087Z,0.162400007
2022-08-25T05:07:32.060Z,0.121800005
2022-08-25T05:08:28.483Z,0.097440004
2022-08-25T05:09:28.863Z,0.081200004
2022-08-25T05:10:30.554Z,0.105560005
2022-08-25T05:11:27.166Z,0.138040006
2022-08-25T05:12:30.723Z,0.048720002
2022-08-25T05:13:36.554Z,0.154280007
2022-08-25T05:14:42.929Z,0.105560005
2022-08-25T05:15:43.115Z,0.129920006
2022-08-25T05:17:50.677Z,0.178640008
2022-08-25T05:17:55.991Z,0.178640008
2022-08-25T05:18:50.187Z,0.138040006
2022-08-25T05:19:46.132Z,0.113680005
2022-08-25T05:20:47.946Z,0.194880009
2022-08-25T05:21:43.254Z,0.024360001
2022-08-25T05:22:43.922Z,0.186760008
2022-08-25T05:23:39.167Z,0.073080003
2022-08-25T05:24:43.386Z,0.138040006
2022-08-25T05:25:41.574Z,0.138040006
2022-08-25T05:27:39.260Z,0.178640008
2022-08-25T05:28:42.950Z,0.121800005
2022-08-25T05:29:38.618Z,0.178640008
2022-08-25T05:30:41.977Z,0.178640008
2022-08-25T05:31:45.932Z,0.105560005
2022-08-25T05:31:50.364Z,0.105560005
2022-08-25T05:32:42.725Z,0.113680005
2022-08-25T05:33:40.771Z,0.203000009
2022-08-25T05:34:38.709Z,0.146160007
2022-08-25T05:35:39.913Z,0.154280007
2022-08-25T05:36:41.273Z,0.162400007
2022-08-25T05:37:42.495Z,0.056840003
2022-08-25T05:38:40.857Z,0.138040006
2022-08-25T05:39:38.949Z,0.073080003
2022-08-25T05:40:40.455Z,0.073080003
2022-08-25T05:42:39.071Z,0.235480011
2022-08-25T05:43:33.490Z,0.056840003
2022-08-25T05:44:36.464Z,0.129920006
2022-08-25T05:45:30.853Z,0.186760008
2022-08-25T05:47:26.881Z,0.138040006
2022-08-25T05:48:31.052Z,0.089320004
2022-08-25T05:49:24.883Z,0.146160007
2022-08-25T05:50:27.762Z,0.21924001
2022-08-25T05:51:21.301Z,0.048720002
2022-08-25T05:53:46.435Z,0.178640008
2022-08-25T05:54:45.860Z,0.121800005
2022-08-25T05:55:43.152Z,0.170520008
2022-08-25T05:56:45.366Z,0.170520008
2022-08-25T05:57:39.883Z,0.22736001
2022-08-25T05:58:36.928Z,0.203000009
2022-08-25T05:59:38.880Z,0.121800005
2022-08-25T06:00:35.200Z,0.170520008
2022-08-25T06:02:29.901Z,0.129920006
2022-08-25T06:03:33.396Z,0.162400007
2022-08-25T06:04:28.065Z,0.170520008
2022-08-25T06:05:30.210Z,0.089320004
2022-08-25T06:07:25.040Z,0.154280007
2022-08-25T06:08:29.537Z,0.170520008
2022-08-25T06:09:24.823Z,0.194880009
2022-08-25T06:10:29.967Z,0.154280007
2022-08-25T06:11:26.261Z,0.081200004
2022-08-25T06:12:29.529Z,0.178640008
2022-08-25T06:13:28.892Z,0.267960012
2022-08-25T06:13:29.136Z,0.267960012
2022-08-25T06:14:30.339Z,0.162400007
2022-08-25T06:15:22.809Z,0.113680005
2022-08-25T06:17:21.662Z,0.138040006
2022-08-25T06:18:22.269Z,0.243600011
2022-08-25T06:19:16.835Z,0.203000009
2022-08-25T06:20:16.096Z,0.170520008
2022-08-25T06:21:18.964Z,0.162400007
2022-08-25T06:22:14.797Z,0.276080012
2022-08-25T06:23:18.733Z,0.22736001
2022-08-25T06:24:45.389Z,0.129920006
2022-08-25T06:25:40.138Z,0.203000009
2022-08-25T06:26:39.673Z,0.186760008
2022-08-25T06:27:34.346Z,0.194880009
2022-08-25T06:28:36.291Z,0.194880009
2022-08-25T06:29:32.743Z,0.267960012
2022-08-25T06:30:36.646Z,0.235480011
2022-08-25T06:32:34.286Z,0.22736001
2022-08-25T06:34:13.529Z,0.276080012
2022-08-25T06:36:45.530Z,-0.064960003
2022-08-25T06:37:11.909Z,0.178640008
2022-08-25T06:38:09.920Z,0.235480011
2022-08-25T06:39:10.597Z,0.349160016
2022-08-25T06:40:04.265Z,0.243600011
2022-08-25T06:41:10.826Z,0.121800005
2022-08-25T06:43:06.080Z,0.357280016
2022-08-25T06:44:06.184Z,0.203000009
2022-08-25T06:45:08.137Z,0.259840012
2022-08-25T06:45:59.041Z,0.357280016
2022-08-25T06:47:54.932Z,0.381640017
2022-08-25T06:48:52.843Z,0.203000009
2022-08-25T06:49:46.868Z,0.292320013
2022-08-25T06:50:50.533Z,0.259840012
2022-08-25T06:51:48.341Z,0.284200013
2022-08-25T06:52:42.697Z,0.235480011
2022-08-25T06:53:41.022Z,0.203000009
2022-08-25T06:54:39.184Z,0.267960012
2022-08-25T06:55:39.334Z,0.316680014
2022-08-25T06:57:33.255Z,0.300440013
2022-08-25T06:58:33.430Z,0.422240019
2022-08-25T06:59:25.133Z,0.470960021
2022-08-25T06:59:32.470Z,0.470960021
2022-08-25T07:00:30.297Z,0.365400016
2022-08-25T07:00:31.631Z,0.365400016
2022-08-25T07:01:25.991Z,0.300440013
2022-08-25T07:02:21.893Z,0.332920015
2022-08-25T07:03:19.506Z,0.349160016
2022-08-25T07:04:12.787Z,0.479080021
2022-08-25T07:05:13.215Z,0.365400016
2022-08-25T07:06:06.252Z,0.389760017
2022-08-25T07:07:59.267Z,0.373520017
2022-08-25T07:08:55.666Z,0.341040015
2022-08-25T07:09:56.268Z,0.332920015
2022-08-25T07:10:51.760Z,0.389760017
2022-08-25T07:12:44.576Z,0.519680023
2022-08-25T07:13:43.926Z,0.633360028
2022-08-25T07:14:38.306Z,0.66584003
2022-08-25T07:15:34.180Z,0.66584003
2022-08-25T07:17:20.421Z,-0.089320004
2022-08-25T07:18:01.096Z,0.641480029
2022-08-25T07:19:01.598Z,0.649600029
2022-08-25T07:19:58.931Z,0.66584003
2022-08-25T07:21:02.610Z,0.422240019
2022-08-25T07:21:59.076Z,0.641480029
2022-08-25T07:22:55.673Z,0.649600029
2022-08-25T07:23:55.188Z,0.511560023
2022-08-25T07:24:51.762Z,0.66584003
2022-08-25T07:25:51.236Z,0.844480038
2022-08-25T07:27:48.913Z,0.755160034
2022-08-25T07:28:47.208Z,0.706440032
2022-08-25T07:28:47.454Z,0.706440032
2022-08-25T07:29:42.269Z,0.950040042
2022-08-25T07:30:37.079Z,0.722680032
2022-08-25T07:32:31.565Z,0.68208003
2022-08-25T07:33:28.632Z,0.89320004
2022-08-25T07:34:28.366Z,0.89320004
2022-08-25T07:35:23.990Z,0.755160034
2022-08-25T07:36:22.695Z,0.698320031
2022-08-25T07:37:32.245Z,1.031239986
2022-08-25T07:37:47.608Z,1.031239986
2022-08-25T07:37:48.145Z,1.031239986
2022-08-25T07:38:20.771Z,1.12056005
2022-08-25T07:39:15.141Z,1.079960108
2022-08-25T07:40:14.336Z,1.502200127
2022-08-25T07:41:09.673Z,1.161159992
2022-08-25T07:43:07.976Z,1.177400112
2022-08-25T07:44:03.572Z,1.185520053
2022-08-25T07:45:02.528Z,1.502200127
2022-08-25T07:46:04.884Z,1.648360014
2022-08-25T07:46:57.851Z,1.526560068
2022-08-25T07:47:59.265Z,1.79452014
2022-08-25T07:48:54.825Z,1.956920147
2022-08-25T07:49:55.301Z,1.900080085
2022-08-25T07:52:32.564Z,2.159920216
2022-08-25T07:53:32.450Z,2.265480042
2022-08-25T07:54:33.732Z,1.908200026
2022-08-25T07:54:34.315Z,1.908200026
2022-08-25T07:56:10.750Z,1.908200026
2022-08-25T07:57:11.104Z,1.891960144
2022-08-25T07:58:50.020Z,1.762040138
2022-08-25T07:59:50.170Z,1.940680027
2022-08-25T08:03:10.019Z,1.835120082
2022-08-25T08:03:19.816Z,1.835120082
2022-08-25T08:04:52.472Z,1.534680128
2022-08-25T08:08:09.171Z,1.307320118
2022-08-25T08:09:46.373Z,0.844480038
2022-08-25T08:11:21.869Z,1.031239986
2022-08-25T08:13:07.227Z,1.12056005
2022-08-25T08:14:02.198Z,1.144920111
2022-08-25T08:16:40.759Z,1.096199989
2022-08-25T08:17:39.449Z,1.234240055
2022-08-25T08:18:40.623Z,1.169280052
2022-08-25T08:19:36.362Z,1.672720075
2022-08-25T08:20:42.628Z,1.55904007
2022-08-25T08:20:43.375Z,1.55904007
2022-08-25T08:21:36.309Z,1.656480074
2022-08-25T08:22:31.902Z,1.518440008
2022-08-25T08:23:34.946Z,1.843240023
2022-08-25T08:24:44.245Z,1.78640008
2022-08-25T08:24:44.563Z,1.78640008
2022-08-25T08:24:54.952Z,1.78640008
2022-08-25T08:25:27.708Z,2.565920115
2022-08-25T08:26:41.896Z,2.492840052
2022-08-25T08:26:55.339Z,2.492840052
2022-08-25T08:26:57.385Z,2.492840052
2022-08-25T08:28:26.465Z,2.362920046
2022-08-25T08:29:22.750Z,2.500960112
2022-08-25T08:30:23.714Z,2.736440182
2022-08-25T08:31:26.545Z,2.720200062
2022-08-25T08:32:19.865Z,2.817640066
2022-08-25T08:33:21.148Z,3.329200268
2022-08-25T08:34:17.354Z,3.191160202
2022-08-25T08:35:16.905Z,3.118080139
2022-08-25T08:36:19.360Z,3.158680201
2022-08-25T08:37:13.698Z,3.272360086
2022-08-25T08:38:18.440Z,3.126200199
2022-08-25T08:38:22.222Z,3.126200199
2022-08-25T08:38:27.064Z,3.126200199
2022-08-25T08:39:13.849Z,3.183040142
2022-08-25T08:40:10.256Z,3.483480215
2022-08-25T08:41:14.019Z,2.744560242
2022-08-25T08:43:13.339Z,3.321080208
2022-08-25T08:43:18.305Z,3.321080208
2022-08-25T08:44:08.712Z,2.809520245
2022-08-25T08:45:04.966Z,3.077480078
2022-08-25T08:46:06.351Z,2.736440182
2022-08-25T08:48:03.221Z,2.135560036
2022-08-25T08:48:59.967Z,2.046240091
2022-08-25T08:50:01.938Z,2.338560104
2022-08-25T08:50:59.280Z,2.119320154
2022-08-25T08:52:57.309Z,1.485960007
2022-08-25T08:53:55.110Z,1.583400011
2022-08-25T08:54:53.836Z,1.437240124
2022-08-25T08:55:54.634Z,1.526560068
2022-08-25T08:56:52.843Z,1.429120064
2022-08-25T08:57:55.496Z,1.34792006
2022-08-25T08:58:49.876Z,0.966280043
2022-08-25T08:59:50.456Z,0.950040042
2022-08-25T09:00:46.772Z,1.177400112
2022-08-25T09:00:52.155Z,1.177400112
2022-08-25T09:02:51.498Z,0.974400043
2022-08-25T09:02:51.983Z,0.974400043
2022-08-25T09:05:11.787Z,0.90132004
2022-08-25T09:06:09.656Z,0.844480038
2022-08-25T09:07:09.991Z,0.89320004
2022-08-25T09:08:06.073Z,1.055600047
2022-08-25T09:09:06.810Z,1.112440109
2022-08-25T09:10:02.278Z,1.437240124
2022-08-25T09:11:01.826Z,0.990640044
2022-08-25T09:11:57.429Z,1.047480106
2022-08-25T09:12:57.219Z,0.860720038
2022-08-25T09:13:53.725Z,1.071840048
2022-08-25T09:14:56.448Z,0.803880036
2022-08-25T09:15:49.230Z,0.982520044
2022-08-25T09:17:45.458Z,0.933800042
2022-08-25T09:17:54.492Z,0.933800042
2022-08-25T09:18:51.247Z,1.153040051
2022-08-25T09:18:52.649Z,1.153040051
2022-08-25T09:19:45.582Z,1.291079998
2022-08-25T09:20:41.771Z,1.177400112
2022-08-25T09:22:36.897Z,1.534680128
2022-08-25T09:23:37.307Z,1.461600065
2022-08-25T09:24:34.161Z,1.071840048
2022-08-25T09:25:52.317Z,1.088080049
2022-08-25T09:25:53.124Z,1.088080049
2022-08-25T09:25:53.207Z,1.088080049
2022-08-25T09:26:33.285Z,1.185520053
2022-08-25T09:28:32.348Z,1.372280121
2022-08-25T09:29:25.356Z,1.193639994
2022-08-25T09:30:25.634Z,1.356040001
2022-08-25T09:31:21.114Z,1.412880063
2022-08-25T09:32:24.061Z,1.234240055
2022-08-25T09:33:20.876Z,1.437240124
2022-08-25T09:34:17.281Z,1.177400112
2022-08-25T09:35:13.467Z,1.088080049
2022-08-25T09:36:11.150Z,0.90132004
2022-08-25T09:37:11.292Z,0.690200031
2022-08-25T09:38:07.121Z,1.055600047
2022-08-25T09:39:06.616Z,0.690200031
2022-08-25T09:40:06.898Z,0.909440041
2022-08-25T09:41:02.781Z,0.738920033
2022-08-25T09:43:03.424Z,0.803880036
2022-08-25T09:44:03.925Z,0.812000036
2022-08-25T09:45:02.862Z,0.730800033
2022-08-25T09:47:19.786Z,0.527800024
2022-08-25T09:48:18.871Z,0.535920024
2022-08-25T09:49:18.655Z,0.771400034
2022-08-25T09:50:18.452Z,0.66584003
2022-08-25T09:51:17.328Z,0.747040033
2022-08-25T09:52:12.921Z,0.860720038
2022-08-25T09:53:13.751Z,0.820120037
2022-08-25T09:54:10.944Z,0.657720029
2022-08-25T09:55:09.551Z,0.771400034
2022-08-25T09:56:06.206Z,0.966280043
2022-08-25T09:57:08.789Z,0.706440032
2022-08-25T09:58:01.964Z,0.600880027
2022-08-25T09:58:09.656Z,0.600880027
2022-08-25T09:59:03.214Z,0.812000036
2022-08-25T09:59:57.820Z,0.67396003
2022-08-25T10:00:57.752Z,0.641480029
2022-08-25T10:01:56.936Z,0.600880027
2022-08-25T10:02:56.879Z,0.617120028
2022-08-25T10:03:52.371Z,0.649600029
2022-08-25T10:04:50.623Z,0.698320031
2022-08-25T10:05:49.686Z,0.560280025
2022-08-25T10:05:56.265Z,0.560280025
2022-08-25T10:07:42.429Z,0.544040024
2022-08-25T10:08:44.502Z,0.600880027
2022-08-25T10:09:37.579Z,0.617120028
2022-08-25T10:10:37.303Z,0.657720029
2022-08-25T10:11:35.100Z,0.503440022
2022-08-25T10:12:37.283Z,0.641480029
2022-08-25T10:12:43.126Z,0.641480029
2022-08-25T10:13:35.487Z,0.68208003
2022-08-25T10:14:30.796Z,0.617120028
2022-08-25T10:15:33.205Z,0.600880027
2022-08-25T10:16:29.630Z,0.609000027
2022-08-25T10:16:34.499Z,0.609000027
2022-08-25T10:18:25.975Z,0.649600029
2022-08-25T10:19:20.609Z,0.535920024
2022-08-25T10:20:23.530Z,0.649600029
2022-08-25T10:21:18.369Z,0.519680023
2022-08-25T10:23:12.756Z,0.698320031
2022-08-25T10:24:11.331Z,0.66584003
2022-08-25T10:25:13.353Z,0.511560023
2022-08-25T10:26:08.370Z,0.625240028
2022-08-25T10:28:09.286Z,0.600880027
2022-08-25T10:29:03.685Z,0.45472002
2022-08-25T10:30:02.866Z,0.617120028
2022-08-25T10:30:58.088Z,0.657720029
2022-08-25T10:31:54.832Z,0.641480029
2022-08-25T10:34:15.158Z,0.397880018
2022-08-25T10:35:14.385Z,0.414120018
2022-08-25T10:36:14.985Z,0.617120028
2022-08-25T10:36:20.381Z,0.617120028
2022-08-25T10:38:13.129Z,0.527800024
2022-08-25T10:38:21.629Z,0.527800024
2022-08-25T10:39:33.848Z,0.535920024
2022-08-25T10:39:33.869Z,0.535920024
2022-08-25T10:39:34.293Z,0.535920024
2022-08-25T10:40:16.724Z,0.820120037
2022-08-25T10:41:11.242Z,0.641480029
2022-08-25T10:43:08.145Z,0.592760026
2022-08-25T10:44:08.080Z,0.535920024
2022-08-25T10:45:04.711Z,0.609000027
2022-08-25T10:46:07.345Z,0.462840021
2022-08-25T10:47:03.529Z,0.470960021
2022-08-25T10:48:05.833Z,0.503440022
2022-08-25T10:49:01.198Z,0.503440022
2022-08-25T10:50:01.634Z,0.373520017
2022-08-25T10:50:56.984Z,0.430360019
2022-08-25T10:51:57.262Z,0.43848002
2022-08-25T10:52:55.074Z,0.584640026
2022-08-25T10:53:54.242Z,0.487200022
2022-08-25T10:54:54.823Z,0.414120018
2022-08-25T10:55:51.183Z,0.357280016
2022-08-25T10:58:00.991Z,0.349160016
2022-08-25T10:58:54.064Z,0.479080021
2022-08-25T10:59:50.497Z,0.495320022
2022-08-25T11:00:53.273Z,0.487200022
2022-08-25T11:01:48.591Z,0.300440013
2022-08-25T11:01:53.986Z,0.300440013
2022-08-25T11:02:48.926Z,0.568400025
2022-08-25T11:03:48.897Z,0.341040015
2022-08-25T11:04:48.084Z,0.470960021
2022-08-25T11:05:44.612Z,0.511560023
2022-08-25T11:06:44.778Z,0.430360019
2022-08-25T11:07:40.319Z,0.357280016
2022-08-25T11:08:44.129Z,0.503440022
2022-08-25T11:09:36.887Z,0.276080012
2022-08-25T11:10:38.255Z,0.43848002
2022-08-25T11:11:35.068Z,0.519680023
2022-08-25T11:12:33.086Z,0.406000018
2022-08-25T11:13:37.316Z,0.397880018
2022-08-25T11:14:34.649Z,0.324800014
2022-08-25T11:15:34.536Z,0.422240019
2022-08-25T11:16:31.010Z,0.503440022
2022-08-25T11:17:34.550Z,0.308560014
2022-08-25T11:18:27.544Z,0.45472002
2022-08-25T11:19:30.467Z,0.535920024
2022-08-25T11:20:27.471Z,0.535920024
2022-08-25T11:21:23.834Z,0.341040015
2022-08-25T11:23:21.512Z,0.576520026
2022-08-25T11:24:28.827Z,0.154280007
2022-08-25T11:25:27.663Z,0.316680014
2022-08-25T11:27:45.749Z,0.316680014
2022-08-25T11:28:45.880Z,0.397880018
2022-08-25T11:29:44.221Z,0.406000018
2022-08-25T11:30:44.931Z,0.211120009
2022-08-25T11:31:39.961Z,0.462840021
2022-08-25T11:33:36.236Z,0.389760017
2022-08-25T11:34:31.479Z,0.462840021
2022-08-25T11:35:34.641Z,0.487200022
2022-08-25T11:36:29.817Z,0.267960012
2022-08-25T11:38:27.874Z,0.324800014
2022-08-25T11:39:38.273Z,0.146160007
2022-08-25T11:40:32.762Z,0.267960012
2022-08-25T11:41:32.526Z,0.357280016
2022-08-25T11:42:30.030Z,0.292320013
2022-08-25T11:43:29.426Z,0.357280016
2022-08-25T11:43:35.725Z,0.357280016
2022-08-25T11:44:29.715Z,0.397880018
2022-08-25T11:45:22.360Z,0.414120018